Weather at Collingwood Airport

Public forecast

Using degrees Celsius for public forecast. Weather courtesy of forecast.io.

Closest aviation weather report (METAR) to Collingwood Airport

Closest report is CFB Borden, 15.0 nm (27.8 km) SE. Retrieved 2021/10/22 02:42 UTC (7 minutes ago):

CYBN 220242Z AUTO 33013G22KT 290V350 2 1/2SM OVC005 09/09 A2973 RMK SLP072

Closest aviation forecast (TAF) to Collingwood Airport

Forecast is more than 6 hours old.

Closest forecast is CFB Borden, 15.0 nm (27.8 km) SE. Retrieved 2021/10/21 18:33 UTC (8 hours ago):

TAF TAF CYBN 211730Z 2118/2206 19010KT P6SM SCT015 SCT020 TEMPO 2118/2120 5SM -SHRA BR BKN015 OVC020 FM212000 21012KT 6SM -SHRA BR SCT008 OVC015 TEMPO 2120/2202 2SM -SHRA BR SCT006 OVC008 PROB30 2120/2202 1SM TSRA BR BKN006 OVC008CB FM220200 34010G20KT 6SM -SHRA BR SCT006 OVC010 RMK FCST BASED ON AUTO OBS NXT FCST BY 220000Z